This is the latest recevied weather packets stored in our database for station/object N4OGP-WX. If no packets are shown the sender has not sent any weather packets the latest 10 day(s).
| Time | Temp. | Humidity | Pressure | Rain* | Wind** | Luminosity | Snow |
|---|---|---|---|---|---|---|---|
| 1777320706 | 27.22° C | 76% | 1014.4 hPa | 0 mm | - | - | - |
| 1777320646 | 27.22° C | 76% | 1014.5 hPa | 0 mm | - | - | - |
| 1777320586 | 23.89° C | 42% | 1020.4 hPa | 0 mm | - | - | - |
| 1777320496 | 27.22° C | 76% | 1014.5 hPa | 0 mm | - | - | - |
| 1777320436 | 23.89° C | 42% | 1020.4 hPa | 0 mm | - | - | - |
| 1777320376 | 23.89° C | 42% | 1020.4 hPa | 0 mm | - | - | - |
| 1777320316 | 27.22° C | 76% | 1014.4 hPa | 0 mm | - | - | - |
| 1777320226 | 27.22° C | 77% | 1014.4 hPa | 0 mm | - | - | - |
| 1777320166 | 27.22° C | 77% | 1014.4 hPa | 0 mm | - | - | - |
| 1777320076 | 23.89° C | 42% | 1020.4 hPa | 0 mm | - | - | - |
| 1777319986 | 23.89° C | 42% | 1020.4 hPa | 0 mm | - | - | - |
| 1777319926 | 27.22° C | 76% | 1014.5 hPa | 0 mm | - | - | - |
| 1777319866 | 27.22° C | 76% | 1014.5 hPa | 0 mm | - | - | - |
| 1777319776 | 27.22° C | 75% | 1014.4 hPa | 0 mm | - | - | - |
| 1777319716 | 23.89° C | 42% | 1020.4 hPa | 0 mm | - | - | - |
| 1777319656 | 23.89° C | 42% | 1020.4 hPa | 0 mm | - | - | - |
| 1777319596 | 23.89° C | 42% | 1020.4 hPa | 0 mm | - | - | - |
| 1777319536 | 27.22° C | 74% | 1014.6 hPa | 0 mm | - | - | - |
| 1777319476 | 27.22° C | 75% | 1014.6 hPa | 0 mm | - | - | - |
| 1777319416 | 27.22° C | 74% | 1014.5 hPa | 0 mm | - | - | - |
| 1777319356 | 23.89° C | 42% | 1020.4 hPa | 0 mm | - | - | - |
| 1777319296 | 27.22° C | 75% | 1014.5 hPa | 0 mm | - | - | - |
| 1777319236 | 23.89° C | 42% | 1020.4 hPa | 0 mm | - | - | - |
| 1777319146 | 23.89° C | 42% | 1020.4 hPa | 0 mm | - | - | - |
| 1777319056 | 27.78° C | 74% | 1014.5 hPa | 0 mm | - | - | - |
* Rain latest hour (hover to see other rain measurements)
** Current wind speed in m/s (hover to see current wind gust speed)